KMTH

The Florida Keys Marathon International Airport

Marathon, Florida, USA
METAR KMTH 241453Z AUTO 35005KT 10SM BKN028 BKN043 31/23 A3006 RMK AO2 SLP178 T03060233 53015 $
Observed Flight Rules
Jun-24 @ 14:53 UTC (11 minutes ago) Marginal Visual Flight Rules
Wind Visibility Clouds
350° at 5 knots 10 miles
  • Broken at 2,800' AGL
  • Broken at 4,300' AGL
Temperatures Readings
Current 31°C / 88°F
Dewpoint 23°C / 73°F
Humidity 62%
Altimeter 30.06" Hg
Pressure 1017.8 hPa
Elevation 2
METAR KMTH 241453Z AUTO 35005KT 10SM BKN028 BKN043 31/23 A3006 RMK AO2 SLP178 T03060233 53015 $
Observed Flight Rules
Jun-24 @ 14:53 UTC
(11 minutes ago)
MVFR
Wind Visibility
350° at 5 knots 10 miles
Clouds
  • Broken at 2,800' AGL
  • Broken at 4,300' AGL
Temperature Dewpoint
31°C / 88°F 23°C / 73°F
Humidity Altimeter Pressure
62% 30.06" Hg 1017.8 hPa